sensor_id;sensor_type;location;lat;lon;timestamp;temperature;humidity
49148;DHT22;41980;45.550;12.070;2023-04-25T00:02:51;13.20;70.60
49148;DHT22;41980;45.550;12.070;2023-04-25T00:08:53;13.00;70.30
49148;DHT22;41980;45.550;12.070;2023-04-25T00:14:55;13.00;70.60
49148;DHT22;41980;45.550;12.070;2023-04-25T00:20:58;13.00;71.30
49148;DHT22;41980;45.550;12.070;2023-04-25T00:27:00;13.00;70.50
49148;DHT22;41980;45.550;12.070;2023-04-25T00:33:03;13.10;70.60
49148;DHT22;41980;45.550;12.070;2023-04-25T00:39:05;13.20;70.40
49148;DHT22;41980;45.550;12.070;2023-04-25T00:45:08;13.10;70.50
49148;DHT22;41980;45.550;12.070;2023-04-25T00:51:11;13.00;71.20
49148;DHT22;41980;45.550;12.070;2023-04-25T00:57:15;12.80;71.30
49148;DHT22;41980;45.550;12.070;2023-04-25T01:03:16;12.70;71.60
49148;DHT22;41980;45.550;12.070;2023-04-25T01:09:20;12.60;71.30
49148;DHT22;41980;45.550;12.070;2023-04-25T01:15:23;12.50;71.40
49148;DHT22;41980;45.550;12.070;2023-04-25T01:21:25;12.50;71.80
49148;DHT22;41980;45.550;12.070;2023-04-25T01:27:29;12.50;71.90
49148;DHT22;41980;45.550;12.070;2023-04-25T01:33:31;12.50;72.70
49148;DHT22;41980;45.550;12.070;2023-04-25T01:39:33;12.50;72.60
49148;DHT22;41980;45.550;12.070;2023-04-25T01:45:34;12.40;71.10
49148;DHT22;41980;45.550;12.070;2023-04-25T01:51:37;12.50;73.90
49148;DHT22;41980;45.550;12.070;2023-04-25T01:57:39;12.60;73.20
49148;DHT22;41980;45.550;12.070;2023-04-25T02:03:41;12.60;71.20
49148;DHT22;41980;45.550;12.070;2023-04-25T02:09:50;12.70;77.40
49148;DHT22;41980;45.550;12.070;2023-04-25T02:15:54;12.70;76.20
49148;DHT22;41980;45.550;12.070;2023-04-25T02:21:55;12.70;73.60
49148;DHT22;41980;45.550;12.070;2023-04-25T02:27:58;12.60;73.00
49148;DHT22;41980;45.550;12.070;2023-04-25T02:33:59;12.50;73.00
49148;DHT22;41980;45.550;12.070;2023-04-25T02:40:02;12.50;73.70
49148;DHT22;41980;45.550;12.070;2023-04-25T02:46:06;12.60;74.40
49148;DHT22;41980;45.550;12.070;2023-04-25T02:52:08;12.60;72.60
49148;DHT22;41980;45.550;12.070;2023-04-25T02:58:10;12.70;74.50
49148;DHT22;41980;45.550;12.070;2023-04-25T03:04:15;12.90;72.10
49148;DHT22;41980;45.550;12.070;2023-04-25T03:10:17;13.00;72.80
49148;DHT22;41980;45.550;12.070;2023-04-25T03:16:19;13.00;73.50
49148;DHT22;41980;45.550;12.070;2023-04-25T03:22:21;12.80;73.40
49148;DHT22;41980;45.550;12.070;2023-04-25T03:28:23;12.90;73.10
49148;DHT22;41980;45.550;12.070;2023-04-25T03:34:25;12.90;72.80
49148;DHT22;41980;45.550;12.070;2023-04-25T03:40:27;13.00;72.70
49148;DHT22;41980;45.550;12.070;2023-04-25T03:46:32;12.90;73.70
49148;DHT22;41980;45.550;12.070;2023-04-25T03:52:34;12.80;74.00
49148;DHT22;41980;45.550;12.070;2023-04-25T03:58:36;12.80;73.80
49148;DHT22;41980;45.550;12.070;2023-04-25T04:04:38;12.70;75.80
49148;DHT22;41980;45.550;12.070;2023-04-25T04:10:39;12.60;75.10
49148;DHT22;41980;45.550;12.070;2023-04-25T04:16:41;12.50;77.90
49148;DHT22;41980;45.550;12.070;2023-04-25T04:22:44;12.50;76.00
49148;DHT22;41980;45.550;12.070;2023-04-25T04:28:49;12.50;76.60
49148;DHT22;41980;45.550;12.070;2023-04-25T04:34:55;12.50;76.10
49148;DHT22;41980;45.550;12.070;2023-04-25T04:40:59;12.50;77.20
49148;DHT22;41980;45.550;12.070;2023-04-25T04:47:04;12.50;80.20
49148;DHT22;41980;45.550;12.070;2023-04-25T04:53:17;12.50;76.80
49148;DHT22;41980;45.550;12.070;2023-04-25T04:59:22;12.50;78.70
49148;DHT22;41980;45.550;12.070;2023-04-25T05:05:27;12.50;77.50
49148;DHT22;41980;45.550;12.070;2023-04-25T05:11:45;12.60;78.10
49148;DHT22;41980;45.550;12.070;2023-04-25T05:17:50;12.60;76.20
49148;DHT22;41980;45.550;12.070;2023-04-25T05:24:00;12.70;75.40
49148;DHT22;41980;45.550;12.070;2023-04-25T05:30:06;12.70;75.70
49148;DHT22;41980;45.550;12.070;2023-04-25T05:36:11;12.80;75.20
49148;DHT22;41980;45.550;12.070;2023-04-25T05:42:13;12.70;77.30
49148;DHT22;41980;45.550;12.070;2023-04-25T05:48:18;12.50;77.50
49148;DHT22;41980;45.550;12.070;2023-04-25T05:54:34;12.40;78.20
49148;DHT22;41980;45.550;12.070;2023-04-25T06:00:35;12.30;77.20
49148;DHT22;41980;45.550;12.070;2023-04-25T06:06:37;12.40;76.50
49148;DHT22;41980;45.550;12.070;2023-04-25T06:12:39;12.50;79.20
49148;DHT22;41980;45.550;12.070;2023-04-25T06:18:41;12.50;77.90
49148;DHT22;41980;45.550;12.070;2023-04-25T06:24:44;12.50;78.10
49148;DHT22;41980;45.550;12.070;2023-04-25T06:30:47;12.50;75.40
49148;DHT22;41980;45.550;12.070;2023-04-25T06:36:52;12.60;76.70
49148;DHT22;41980;45.550;12.070;2023-04-25T06:42:55;12.50;77.70
49148;DHT22;41980;45.550;12.070;2023-04-25T06:49:12;12.50;75.90
49148;DHT22;41980;45.550;12.070;2023-04-25T06:55:14;12.50;78.20
49148;DHT22;41980;45.550;12.070;2023-04-25T07:01:19;12.40;77.40
49148;DHT22;41980;45.550;12.070;2023-04-25T07:07:20;12.30;77.20
49148;DHT22;41980;45.550;12.070;2023-04-25T07:13:29;12.30;80.10
49148;DHT22;41980;45.550;12.070;2023-04-25T07:19:31;12.30;79.40
49148;DHT22;41980;45.550;12.070;2023-04-25T07:25:36;12.30;80.40
49148;DHT22;41980;45.550;12.070;2023-04-25T07:31:38;12.30;76.90
49148;DHT22;41980;45.550;12.070;2023-04-25T07:37:40;12.20;78.80
49148;DHT22;41980;45.550;12.070;2023-04-25T07:43:46;12.20;81.10
49148;DHT22;41980;45.550;12.070;2023-04-25T07:49:49;12.20;78.70
49148;DHT22;41980;45.550;12.070;2023-04-25T07:55:51;12.10;79.80
49148;DHT22;41980;45.550;12.070;2023-04-25T08:01:54;12.20;80.20
49148;DHT22;41980;45.550;12.070;2023-04-25T08:07:57;12.20;78.80
49148;DHT22;41980;45.550;12.070;2023-04-25T08:13:59;12.20;78.70
49148;DHT22;41980;45.550;12.070;2023-04-25T08:20:01;12.30;78.70
49148;DHT22;41980;45.550;12.070;2023-04-25T08:26:07;12.30;78.70
49148;DHT22;41980;45.550;12.070;2023-04-25T08:32:12;12.30;77.70
49148;DHT22;41980;45.550;12.070;2023-04-25T08:38:22;12.30;78.10
49148;DHT22;41980;45.550;12.070;2023-04-25T08:44:24;12.30;79.50
49148;DHT22;41980;45.550;12.070;2023-04-25T08:50:26;12.40;79.00
49148;DHT22;41980;45.550;12.070;2023-04-25T08:56:28;12.50;76.90
49148;DHT22;41980;45.550;12.070;2023-04-25T09:02:30;12.50;76.50
49148;DHT22;41980;45.550;12.070;2023-04-25T09:08:32;12.50;76.30
49148;DHT22;41980;45.550;12.070;2023-04-25T09:14:34;12.50;77.10
49148;DHT22;41980;45.550;12.070;2023-04-25T09:26:49;12.20;78.50
49148;DHT22;41980;45.550;12.070;2023-04-25T09:33:03;12.00;82.20
49148;DHT22;41980;45.550;12.070;2023-04-25T09:39:13;12.00;82.50
49148;DHT22;41980;45.550;12.070;2023-04-25T09:45:54;12.00;82.00
49148;DHT22;41980;45.550;12.070;2023-04-25T09:52:05;12.20;84.90
49148;DHT22;41980;45.550;12.070;2023-04-25T09:58:21;12.50;81.30
49148;DHT22;41980;45.550;12.070;2023-04-25T10:05:12;12.70;81.50
49148;DHT22;41980;45.550;12.070;2023-04-25T10:11:16;13.10;80.60
49148;DHT22;41980;45.550;12.070;2023-04-25T10:17:18;13.70;79.60
49148;DHT22;41980;45.550;12.070;2023-04-25T10:23:22;14.20;77.30
49148;DHT22;41980;45.550;12.070;2023-04-25T10:29:24;14.40;74.90
49148;DHT22;41980;45.550;12.070;2023-04-25T10:35:29;14.60;75.70
49148;DHT22;41980;45.550;12.070;2023-04-25T10:47:44;15.50;73.40
49148;DHT22;41980;45.550;12.070;2023-04-25T10:53:46;15.70;70.70
49148;DHT22;41980;45.550;12.070;2023-04-25T10:59:49;15.90;72.00
49148;DHT22;41980;45.550;12.070;2023-04-25T11:05:51;16.10;68.10
49148;DHT22;41980;45.550;12.070;2023-04-25T11:11:54;16.40;69.90
49148;DHT22;41980;45.550;12.070;2023-04-25T11:17:56;16.10;69.10
49148;DHT22;41980;45.550;12.070;2023-04-25T11:23:58;16.00;68.00
49148;DHT22;41980;45.550;12.070;2023-04-25T11:36:06;16.00;69.00
49148;DHT22;41980;45.550;12.070;2023-04-25T11:42:08;15.90;68.10
49148;DHT22;41980;45.550;12.070;2023-04-25T11:48:10;15.60;68.70
49148;DHT22;41980;45.550;12.070;2023-04-25T11:54:12;15.70;68.50
49148;DHT22;41980;45.550;12.070;2023-04-25T12:00:23;16.00;67.90
49148;DHT22;41980;45.550;12.070;2023-04-25T12:06:27;16.00;66.90
49148;DHT22;41980;45.550;12.070;2023-04-25T12:18:35;15.60;66.20
49148;DHT22;41980;45.550;12.070;2023-04-25T12:24:37;15.60;65.30
49148;DHT22;41980;45.550;12.070;2023-04-25T12:36:44;15.90;65.70
49148;DHT22;41980;45.550;12.070;2023-04-25T12:42:45;16.00;65.20
49148;DHT22;41980;45.550;12.070;2023-04-25T12:48:47;16.20;65.10
49148;DHT22;41980;45.550;12.070;2023-04-25T12:54:49;16.10;64.50
49148;DHT22;41980;45.550;12.070;2023-04-25T13:00:50;16.40;63.80
49148;DHT22;41980;45.550;12.070;2023-04-25T13:06:52;16.40;63.20
49148;DHT22;41980;45.550;12.070;2023-04-25T13:12:54;16.50;63.70
49148;DHT22;41980;45.550;12.070;2023-04-25T13:18:56;16.50;61.30
49148;DHT22;41980;45.550;12.070;2023-04-25T13:24:57;16.50;62.90
49148;DHT22;41980;45.550;12.070;2023-04-25T13:30:59;16.40;62.00
49148;DHT22;41980;45.550;12.070;2023-04-25T13:37:01;16.50;62.30
49148;DHT22;41980;45.550;12.070;2023-04-25T13:43:03;16.50;61.30
49148;DHT22;41980;45.550;12.070;2023-04-25T13:49:07;16.60;62.60
49148;DHT22;41980;45.550;12.070;2023-04-25T13:55:09;16.60;62.60
49148;DHT22;41980;45.550;12.070;2023-04-25T14:01:12;16.50;60.40
49148;DHT22;41980;45.550;12.070;2023-04-25T14:07:14;16.60;62.10
49148;DHT22;41980;45.550;12.070;2023-04-25T14:13:17;16.40;62.30
49148;DHT22;41980;45.550;12.070;2023-04-25T14:19:20;16.50;62.60
49148;DHT22;41980;45.550;12.070;2023-04-25T14:25:22;16.50;62.90
49148;DHT22;41980;45.550;12.070;2023-04-25T14:31:23;16.40;62.60
49148;DHT22;41980;45.550;12.070;2023-04-25T14:37:25;16.50;62.60
49148;DHT22;41980;45.550;12.070;2023-04-25T14:43:27;16.40;61.60
49148;DHT22;41980;45.550;12.070;2023-04-25T14:49:28;16.50;62.80
49148;DHT22;41980;45.550;12.070;2023-04-25T14:55:30;16.30;62.80
49148;DHT22;41980;45.550;12.070;2023-04-25T15:01:32;16.10;62.40
49148;DHT22;41980;45.550;12.070;2023-04-25T15:07:33;16.20;62.30
49148;DHT22;41980;45.550;12.070;2023-04-25T15:13:35;16.20;62.60
49148;DHT22;41980;45.550;12.070;2023-04-25T15:19:37;16.20;62.80
49148;DHT22;41980;45.550;12.070;2023-04-25T15:25:39;16.30;62.50
49148;DHT22;41980;45.550;12.070;2023-04-25T15:31:40;16.30;59.60
49148;DHT22;41980;45.550;12.070;2023-04-25T15:37:42;16.50;60.70
49148;DHT22;41980;45.550;12.070;2023-04-25T15:43:44;16.60;62.70
49148;DHT22;41980;45.550;12.070;2023-04-25T15:49:47;16.50;61.90
49148;DHT22;41980;45.550;12.070;2023-04-25T15:55:50;16.40;62.10
49148;DHT22;41980;45.550;12.070;2023-04-25T16:01:52;16.20;63.30
49148;DHT22;41980;45.550;12.070;2023-04-25T16:07:53;16.10;63.50
49148;DHT22;41980;45.550;12.070;2023-04-25T16:13:55;15.90;63.70
49148;DHT22;41980;45.550;12.070;2023-04-25T16:19:57;15.90;64.00
49148;DHT22;41980;45.550;12.070;2023-04-25T16:25:59;15.80;64.30
49148;DHT22;41980;45.550;12.070;2023-04-25T16:32:02;15.70;64.50
49148;DHT22;41980;45.550;12.070;2023-04-25T16:38:04;15.60;64.60
49148;DHT22;41980;45.550;12.070;2023-04-25T16:44:06;15.50;64.80
49148;DHT22;41980;45.550;12.070;2023-04-25T16:50:09;15.60;64.90
49148;DHT22;41980;45.550;12.070;2023-04-25T16:56:11;15.80;64.70
49148;DHT22;41980;45.550;12.070;2023-04-25T17:02:13;15.90;64.50
49148;DHT22;41980;45.550;12.070;2023-04-25T17:08:15;16.00;64.10
49148;DHT22;41980;45.550;12.070;2023-04-25T17:14:17;15.90;64.50
49148;DHT22;41980;45.550;12.070;2023-04-25T17:20:19;15.40;64.60
49148;DHT22;41980;45.550;12.070;2023-04-25T17:26:21;15.10;65.50
49148;DHT22;41980;45.550;12.070;2023-04-25T17:32:23;14.80;66.00
49148;DHT22;41980;45.550;12.070;2023-04-25T17:38:25;14.60;65.90
49148;DHT22;41980;45.550;12.070;2023-04-25T17:44:26;14.40;66.10
49148;DHT22;41980;45.550;12.070;2023-04-25T17:50:28;14.20;66.40
49148;DHT22;41980;45.550;12.070;2023-04-25T17:56:30;14.00;66.40
49148;DHT22;41980;45.550;12.070;2023-04-25T18:02:32;13.90;66.50
49148;DHT22;41980;45.550;12.070;2023-04-25T18:08:33;13.80;66.80
49148;DHT22;41980;45.550;12.070;2023-04-25T18:14:35;13.70;67.10
49148;DHT22;41980;45.550;12.070;2023-04-25T18:20:37;13.50;66.90
49148;DHT22;41980;45.550;12.070;2023-04-25T18:26:39;13.40;67.20
49148;DHT22;41980;45.550;12.070;2023-04-25T18:32:41;13.20;67.40
49148;DHT22;41980;45.550;12.070;2023-04-25T18:38:43;13.00;67.50
49148;DHT22;41980;45.550;12.070;2023-04-25T18:44:50;12.80;68.00
49148;DHT22;41980;45.550;12.070;2023-04-25T18:50:52;12.70;68.10
49148;DHT22;41980;45.550;12.070;2023-04-25T18:56:54;12.60;68.20
49148;DHT22;41980;45.550;12.070;2023-04-25T19:02:57;12.50;68.30
49148;DHT22;41980;45.550;12.070;2023-04-25T19:09:03;12.50;68.40
49148;DHT22;41980;45.550;12.070;2023-04-25T19:15:05;12.40;69.00
49148;DHT22;41980;45.550;12.070;2023-04-25T19:21:08;12.40;68.90
49148;DHT22;41980;45.550;12.070;2023-04-25T19:27:10;12.30;68.90
49148;DHT22;41980;45.550;12.070;2023-04-25T19:33:12;12.10;69.20
49148;DHT22;41980;45.550;12.070;2023-04-25T19:39:14;12.00;69.90
49148;DHT22;41980;45.550;12.070;2023-04-25T19:45:16;11.90;69.40
49148;DHT22;41980;45.550;12.070;2023-04-25T19:51:18;11.90;69.80
49148;DHT22;41980;45.550;12.070;2023-04-25T19:57:20;11.80;70.30
49148;DHT22;41980;45.550;12.070;2023-04-25T20:03:22;11.60;70.80
49148;DHT22;41980;45.550;12.070;2023-04-25T20:09:24;11.50;70.90
49148;DHT22;41980;45.550;12.070;2023-04-25T20:15:26;11.50;71.00
49148;DHT22;41980;45.550;12.070;2023-04-25T20:21:28;11.50;71.40
49148;DHT22;41980;45.550;12.070;2023-04-25T20:27:30;11.40;71.70
49148;DHT22;41980;45.550;12.070;2023-04-25T20:33:33;11.30;71.90
49148;DHT22;41980;45.550;12.070;2023-04-25T20:39:35;11.20;71.90
49148;DHT22;41980;45.550;12.070;2023-04-25T20:45:37;11.20;72.20
49148;DHT22;41980;45.550;12.070;2023-04-25T20:51:40;11.10;72.30
49148;DHT22;41980;45.550;12.070;2023-04-25T20:57:42;11.10;72.50
49148;DHT22;41980;45.550;12.070;2023-04-25T21:03:44;11.00;72.50
49148;DHT22;41980;45.550;12.070;2023-04-25T21:09:49;11.00;72.70
49148;DHT22;41980;45.550;12.070;2023-04-25T21:15:51;10.90;72.90
49148;DHT22;41980;45.550;12.070;2023-04-25T21:21:53;10.90;73.30
49148;DHT22;41980;45.550;12.070;2023-04-25T21:27:54;10.80;73.40
49148;DHT22;41980;45.550;12.070;2023-04-25T21:33:56;10.70;73.50
49148;DHT22;41980;45.550;12.070;2023-04-25T21:39:58;10.70;73.10
49148;DHT22;41980;45.550;12.070;2023-04-25T21:46:00;10.70;73.30
49148;DHT22;41980;45.550;12.070;2023-04-25T21:52:01;10.70;73.30
49148;DHT22;41980;45.550;12.070;2023-04-25T21:58:03;10.60;73.40
49148;DHT22;41980;45.550;12.070;2023-04-25T22:04:05;10.60;73.30
49148;DHT22;41980;45.550;12.070;2023-04-25T22:10:07;10.60;73.40
49148;DHT22;41980;45.550;12.070;2023-04-25T22:16:08;10.50;73.70
49148;DHT22;41980;45.550;12.070;2023-04-25T22:22:12;10.40;74.10
49148;DHT22;41980;45.550;12.070;2023-04-25T22:28:14;10.40;74.50
49148;DHT22;41980;45.550;12.070;2023-04-25T22:34:16;10.30;74.40
49148;DHT22;41980;45.550;12.070;2023-04-25T22:40:18;10.30;74.50
49148;DHT22;41980;45.550;12.070;2023-04-25T22:46:19;10.30;74.20
49148;DHT22;41980;45.550;12.070;2023-04-25T22:52:21;10.30;74.20
49148;DHT22;41980;45.550;12.070;2023-04-25T22:58:23;10.30;76.30
49148;DHT22;41980;45.550;12.070;2023-04-25T23:04:25;10.30;77.40
49148;DHT22;41980;45.550;12.070;2023-04-25T23:10:27;10.40;77.30
49148;DHT22;41980;45.550;12.070;2023-04-25T23:16:28;10.30;77.30
49148;DHT22;41980;45.550;12.070;2023-04-25T23:22:30;10.30;74.60
49148;DHT22;41980;45.550;12.070;2023-04-25T23:28:32;10.20;74.40
49148;DHT22;41980;45.550;12.070;2023-04-25T23:34:34;10.20;74.10
49148;DHT22;41980;45.550;12.070;2023-04-25T23:40:35;10.20;76.20
49148;DHT22;41980;45.550;12.070;2023-04-25T23:46:37;10.20;74.80
49148;DHT22;41980;45.550;12.070;2023-04-25T23:52:39;10.10;74.10
49148;DHT22;41980;45.550;12.070;2023-04-25T23:58:40;10.00;74.30
